Time;durP1;ratioP1;P1;durP2;ratioP2;P2;SDS_P1;SDS_P2;PMS_P1;PMS_P2;Temp;Humidity;BMP_temperature;BMP_pressure;BME280_temperature;BME280_humidity;BME280_pressure;Samples;Min_cycle;Max_cycle;Signal;HPM_P1;HPM_P2
2021/12/13 00:02:25;;;;;;;8.83;8.03;;;;;;;;;;5053021;28;20510;-76
2021/12/13 00:05:05;;;;;;;8.07;7.40;;;;;;;;;;5054221;28;20407;-70
2021/12/13 00:07:34;;;;;;;8.60;7.90;;;;;;;;;;5052934;28;20439;-72
2021/12/13 00:10:03;;;;;;;10.10;8.93;;;;;;;;;;5054008;28;20498;-74
2021/12/13 00:12:33;;;;;;;9.33;8.50;;;;;;;;;;5054108;28;20470;-73
2021/12/13 00:15:00;;;;;;;8.10;7.50;;;;;;;;;;5054118;28;20502;-74
2021/12/13 00:17:29;;;;;;;9.00;8.10;;;;;;;;;;5053995;28;20399;-74
2021/12/13 00:19:59;;;;;;;8.87;8.17;;;;;;;;;;5053977;28;20415;-71
2021/12/13 00:22:32;;;;;;;10.00;9.10;;;;;;;;;;5052497;28;21011;-70
2021/12/13 00:25:02;;;;;;;9.33;8.53;;;;;;;;;;5052599;28;20873;-68
2021/12/13 00:27:29;;;;;;;15.07;8.80;;;;;;;;;;5053812;28;20502;-70
2021/12/13 00:30:09;;;;;;;9.70;8.17;;;;;;;;;;5053840;28;20422;-72
2021/12/13 00:32:39;;;;;;;8.90;8.10;;;;;;;;;;5053755;28;20414;-69
2021/12/13 00:35:07;;;;;;;10.30;9.30;;;;;;;;;;5052350;28;20506;-72
2021/12/13 00:37:36;;;;;;;8.77;8.17;;;;;;;;;;5053929;28;20453;-70
2021/12/13 00:40:02;;;;;;;9.10;8.50;;;;;;;;;;5053614;28;20490;-68
2021/12/13 00:42:33;;;;;;;9.60;8.77;;;;;;;;;;5053580;28;20445;-68
2021/12/13 00:45:01;;;;;;;9.90;9.10;;;;;;;;;;5053583;28;20401;-73
2021/12/13 00:47:29;;;;;;;9.40;8.67;;;;;;;;;;5053581;28;20403;-69
2021/12/13 00:50:15;;;;;;;9.73;9.00;;;;;;;;;;5053593;28;20399;-75
2021/12/13 00:52:43;;;;;;;9.10;8.33;;;;;;;;;;5053269;28;20422;-71
2021/12/13 00:55:20;;;;;;;9.50;8.77;;;;;;;;;;5053357;28;20474;-69
2021/12/13 00:57:49;;;;;;;8.73;8.13;;;;;;;;;;5053428;28;20482;-75
2021/12/13 01:00:24;;;;;;;10.10;9.20;;;;;;;;;;5053247;28;20403;-74
2021/12/13 01:02:58;;;;;;;9.40;8.67;;;;;;;;;;5053474;28;20409;-75
2021/12/13 01:05:32;;;;;;;10.13;9.33;;;;;;;;;;5053357;28;20461;-74
2021/12/13 01:08:04;;;;;;;8.27;7.67;;;;;;;;;;5053232;28;20848;-72
2021/12/13 01:10:30;;;;;;;9.47;8.67;;;;;;;;;;5053349;28;20415;-73
2021/12/13 01:12:58;;;;;;;9.57;8.60;;;;;;;;;;5053247;28;20766;-71
2021/12/13 01:15:32;;;;;;;9.90;9.00;;;;;;;;;;5053269;28;20862;-72
2021/12/13 01:18:17;;;;;;;8.70;7.90;;;;;;;;;;5051928;28;20410;-73
2021/12/13 01:21:03;;;;;;;8.60;7.77;;;;;;;;;;5051876;28;20489;-75
2021/12/13 01:23:46;;;;;;;8.50;7.77;;;;;;;;;;5053148;28;20403;-67
2021/12/13 01:28:45;;;;;;;9.53;8.63;;;;;;;;;;5053480;28;20418;-73
2021/12/13 01:31:13;;;;;;;8.63;7.93;;;;;;;;;;5053177;28;20446;-72
2021/12/13 01:33:43;;;;;;;8.43;7.80;;;;;;;;;;5053080;28;20972;-71
2021/12/13 01:36:10;;;;;;;10.90;8.90;;;;;;;;;;5053054;28;20411;-74
2021/12/13 01:38:45;;;;;;;8.80;8.10;;;;;;;;;;5053063;28;20399;-71
2021/12/13 01:41:15;;;;;;;9.47;8.50;;;;;;;;;;5053091;28;20714;-72
2021/12/13 01:43:48;;;;;;;8.90;8.10;;;;;;;;;;5052998;28;20400;-72
2021/12/13 01:46:15;;;;;;;10.03;9.23;;;;;;;;;;5053034;28;20414;-76
2021/12/13 01:48:43;;;;;;;9.23;8.53;;;;;;;;;;5052966;28;20403;-70
2021/12/13 01:51:11;;;;;;;9.23;8.63;;;;;;;;;;5051702;28;20434;-71
2021/12/13 01:53:49;;;;;;;9.13;8.40;;;;;;;;;;5053086;28;20459;-72
2021/12/13 01:59:41;;;;;;;9.37;8.47;;;;;;;;;;5052964;28;20505;-69
2021/12/13 02:02:29;;;;;;;8.93;8.13;;;;;;;;;;5053145;28;20829;-67
2021/12/13 02:04:58;;;;;;;9.83;9.03;;;;;;;;;;5053082;28;20456;-67
2021/12/13 02:07:26;;;;;;;9.47;8.77;;;;;;;;;;5052738;28;20480;-67
2021/12/13 02:09:52;;;;;;;9.53;8.73;;;;;;;;;;5052634;28;20462;-67
2021/12/13 02:12:19;;;;;;;9.33;8.57;;;;;;;;;;5055021;28;20414;-67
2021/12/13 02:16:56;;;;;;;9.20;8.50;;;;;;;;;;5056306;28;20536;-69
2021/12/13 02:17:38;;;;;;;10.90;9.83;;;;;;;;;;5056130;28;20424;-68
2021/12/13 02:20:13;;;;;;;10.03;9.10;;;;;;;;;;5056215;28;20544;-67
2021/12/13 02:22:42;;;;;;;11.30;10.37;;;;;;;;;;5056170;28;20409;-67
2021/12/13 02:25:16;;;;;;;10.43;9.53;;;;;;;;;;5056082;28;20496;-68
2021/12/13 02:27:46;;;;;;;16.63;10.00;;;;;;;;;;5056120;28;20403;-68
2021/12/13 02:30:15;;;;;;;12.10;10.30;;;;;;;;;;5056067;28;20403;-67
2021/12/13 02:32:42;;;;;;;10.40;9.20;;;;;;;;;;5055975;28;20429;-67
2021/12/13 02:35:09;;;;;;;11.00;9.90;;;;;;;;;;5055852;28;20466;-67
2021/12/13 02:37:36;;;;;;;10.07;9.37;;;;;;;;;;5055812;28;20415;-67
2021/12/13 02:40:03;;;;;;;14.77;9.73;;;;;;;;;;5055873;28;20411;-68
2021/12/13 02:42:31;;;;;;;11.00;9.97;;;;;;;;;;5055779;28;20374;-69
2021/12/13 02:45:03;;;;;;;10.10;9.30;;;;;;;;;;5055738;28;20410;-67
2021/12/13 02:47:36;;;;;;;10.43;9.50;;;;;;;;;;5055645;28;20457;-68
2021/12/13 02:50:03;;;;;;;10.57;9.60;;;;;;;;;;5055654;28;20399;-67
2021/12/13 02:52:29;;;;;;;10.83;9.93;;;;;;;;;;5054255;28;20872;-67
2021/12/13 02:55:00;;;;;;;11.70;10.57;;;;;;;;;;5055418;28;20536;-67
2021/12/13 02:57:29;;;;;;;12.97;10.30;;;;;;;;;;5055539;28;20468;-67
2021/12/13 03:00:00;;;;;;;10.13;9.27;;;;;;;;;;5055435;28;20382;-70
2021/12/13 03:02:31;;;;;;;10.57;9.68;;;;;;;;;;5055390;28;20403;-67
2021/12/13 03:04:58;;;;;;;10.73;9.73;;;;;;;;;;5055344;28;20164;-68
2021/12/13 03:07:33;;;;;;;11.33;10.33;;;;;;;;;;5055316;28;20911;-67
2021/12/13 03:10:00;;;;;;;11.07;10.10;;;;;;;;;;5055169;28;20808;-68
2021/12/13 03:12:27;;;;;;;10.87;9.80;;;;;;;;;;5055268;28;20495;-67
2021/12/13 03:15:06;;;;;;;10.63;9.70;;;;;;;;;;5055042;28;20477;-69
2021/12/13 03:17:34;;;;;;;10.70;9.70;;;;;;;;;;5055158;28;20186;-67
2021/12/13 03:20:18;;;;;;;10.68;9.75;;;;;;;;;;5055138;28;20549;-67
2021/12/13 03:22:44;;;;;;;11.30;10.30;;;;;;;;;;5054044;28;20173;-69
2021/12/13 03:25:14;;;;;;;11.13;9.73;;;;;;;;;;5054922;28;20407;-68
2021/12/13 03:27:53;;;;;;;10.25;9.35;;;;;;;;;;5053739;28;20419;-69
2021/12/13 03:30:22;;;;;;;10.95;9.90;;;;;;;;;;5054871;28;20165;-69
2021/12/13 03:33:02;;;;;;;11.32;10.18;;;;;;;;;;5053611;28;20271;-67
2021/12/13 03:35:34;;;;;;;9.55;8.65;;;;;;;;;;5054712;28;20168;-68
2021/12/13 03:38:05;;;;;;;12.43;10.40;;;;;;;;;;5054759;28;20168;-67
2021/12/13 03:40:32;;;;;;;11.00;9.80;;;;;;;;;;5054761;28;20161;-67
2021/12/13 03:42:59;;;;;;;10.00;7.83;;;;;;;;;;5054653;28;20180;-67
2021/12/13 03:45:38;;;;;;;11.23;10.13;;;;;;;;;;5054628;28;20908;-67
2021/12/13 03:48:05;;;;;;;10.20;9.40;;;;;;;;;;5054653;28;20157;-68
2021/12/13 03:50:39;;;;;;;10.43;9.52;;;;;;;;;;5054494;28;20259;-68
2021/12/13 03:53:10;;;;;;;10.00;9.10;;;;;;;;;;5053124;28;20187;-68
2021/12/13 03:55:37;;;;;;;10.63;9.50;;;;;;;;;;5054487;28;20406;-68
2021/12/13 03:58:05;;;;;;;9.77;8.98;;;;;;;;;;5054684;28;20178;-67
2021/12/13 04:00:33;;;;;;;10.60;9.50;;;;;;;;;;5054376;28;20168;-67
2021/12/13 04:03:01;;;;;;;11.15;9.32;;;;;;;;;;5054226;28;20247;-67
2021/12/13 04:05:28;;;;;;;11.32;10.00;;;;;;;;;;5054249;28;20177;-71
2021/12/13 04:07:56;;;;;;;10.27;9.38;;;;;;;;;;5053985;28;20176;-69
2021/12/13 04:10:27;;;;;;;15.18;9.68;;;;;;;;;;5053983;28;20228;-69
2021/12/13 04:12:54;;;;;;;11.95;10.27;;;;;;;;;;5054073;28;20168;-67
2021/12/13 04:15:27;;;;;;;10.68;9.68;;;;;;;;;;5054053;28;20183;-69
2021/12/13 04:18:02;;;;;;;11.75;10.55;;;;;;;;;;5054059;28;20188;-67
2021/12/13 04:20:32;;;;;;;10.73;9.70;;;;;;;;;;5053930;28;20181;-67
2021/12/13 04:23:01;;;;;;;13.20;11.80;;;;;;;;;;5053907;28;20180;-67
2021/12/13 04:25:31;;;;;;;11.02;10.07;;;;;;;;;;5053839;28;20156;-68
2021/12/13 04:27:57;;;;;;;12.25;11.00;;;;;;;;;;5053873;28;20222;-70
2021/12/13 04:30:23;;;;;;;11.93;10.83;;;;;;;;;;5053799;28;20687;-67
2021/12/13 04:32:51;;;;;;;11.40;10.27;;;;;;;;;;5053732;28;20393;-69
2021/12/13 04:35:17;;;;;;;11.25;10.15;;;;;;;;;;5053256;28;20444;-68
2021/12/13 04:37:51;;;;;;;10.95;9.95;;;;;;;;;;5053668;28;20174;-69
2021/12/13 04:40:20;;;;;;;11.95;10.75;;;;;;;;;;5053710;28;20201;-67
2021/12/13 04:42:49;;;;;;;12.35;11.15;;;;;;;;;;5053796;28;20207;-70
2021/12/13 04:45:25;;;;;;;14.15;11.57;;;;;;;;;;5053488;28;20179;-67
2021/12/13 04:48:04;;;;;;;13.90;10.48;;;;;;;;;;5053556;28;20168;-69
2021/12/13 04:50:32;;;;;;;12.25;11.05;;;;;;;;;;5053431;28;20195;-67
2021/12/13 04:52:58;;;;;;;16.13;11.70;;;;;;;;;;5053312;28;20176;-67
2021/12/13 04:55:26;;;;;;;12.23;11.02;;;;;;;;;;5053498;28;20255;-67
2021/12/13 04:57:54;;;;;;;16.60;12.98;;;;;;;;;;5053374;28;20176;-67
2021/12/13 05:00:21;;;;;;;14.50;12.68;;;;;;;;;;5053425;28;20219;-68
2021/12/13 05:02:49;;;;;;;14.27;11.10;;;;;;;;;;5052945;28;20960;-68
2021/12/13 05:05:16;;;;;;;13.10;11.68;;;;;;;;;;5053520;28;20164;-70
2021/12/13 05:07:44;;;;;;;12.50;11.40;;;;;;;;;;5053287;28;20229;-67
2021/12/13 05:10:11;;;;;;;12.18;11.02;;;;;;;;;;5051894;28;20228;-67
2021/12/13 05:12:37;;;;;;;11.20;10.20;;;;;;;;;;5053304;28;20169;-67
2021/12/13 05:15:06;;;;;;;13.45;10.95;;;;;;;;;;5053209;28;20204;-65
2021/12/13 05:17:36;;;;;;;12.65;11.38;;;;;;;;;;5053287;28;20659;-68
2021/12/13 05:20:08;;;;;;;13.13;11.70;;;;;;;;;;5051782;28;20646;-67
2021/12/13 05:22:39;;;;;;;12.32;11.18;;;;;;;;;;5053341;28;20175;-67
2021/12/13 05:25:05;;;;;;;12.57;11.30;;;;;;;;;;5053537;28;20169;-67
2021/12/13 05:27:36;;;;;;;13.02;11.73;;;;;;;;;;5053429;28;20247;-72
2021/12/13 05:30:08;;;;;;;15.93;11.55;;;;;;;;;;5053538;28;20169;-66
2021/12/13 05:32:36;;;;;;;11.85;10.65;;;;;;;;;;5053595;28;20176;-66
2021/12/13 05:35:22;;;;;;;12.75;10.80;;;;;;;;;;5053341;28;20204;-67
2021/12/13 05:37:54;;;;;;;13.85;11.73;;;;;;;;;;5052766;28;20176;-68
2021/12/13 05:40:33;;;;;;;14.05;12.43;;;;;;;;;;5052934;28;20199;-67
2021/12/13 05:43:02;;;;;;;13.07;11.77;;;;;;;;;;5052995;28;20252;-67
2021/12/13 05:45:30;;;;;;;13.27;11.75;;;;;;;;;;5052888;28;20179;-67
2021/12/13 05:48:03;;;;;;;14.55;11.80;;;;;;;;;;5056427;28;20176;-67
2021/12/13 05:50:53;;;;;;;13.70;11.55;;;;;;;;;;5056699;28;20165;-67
2021/12/13 05:53:24;;;;;;;11.85;10.75;;;;;;;;;;5053566;28;20561;-66
2021/12/13 05:55:55;;;;;;;12.43;11.23;;;;;;;;;;5056621;28;20196;-68
2021/12/13 05:58:30;;;;;;;12.38;10.95;;;;;;;;;;5056574;28;20248;-67
2021/12/13 06:00:58;;;;;;;11.50;10.50;;;;;;;;;;5056632;28;20249;-71
2021/12/13 06:03:32;;;;;;;10.93;9.88;;;;;;;;;;5055331;28;20176;-67
2021/12/13 06:06:05;;;;;;;16.45;11.85;;;;;;;;;;5056442;28;20152;-66
2021/12/13 06:08:33;;;;;;;19.88;15.38;;;;;;;;;;5056334;28;20224;-68
2021/12/13 06:11:04;;;;;;;27.45;16.85;;;;;;;;;;5056410;28;20176;-68
2021/12/13 06:13:42;;;;;;;29.48;17.85;;;;;;;;;;5056607;28;20200;-69
2021/12/13 06:16:14;;;;;;;24.83;15.75;;;;;;;;;;5056250;28;20635;-70
2021/12/13 06:18:59;;;;;;;23.55;16.30;;;;;;;;;;5054979;28;20179;-68
2021/12/13 06:21:25;;;;;;;23.77;16.08;;;;;;;;;;5056212;28;20635;-75
2021/12/13 06:23:51;;;;;;;22.50;16.63;;;;;;;;;;5056144;28;20223;-75
2021/12/13 06:26:17;;;;;;;17.60;13.20;;;;;;;;;;5056232;28;20891;-79
2021/12/13 06:28:45;;;;;;;21.70;15.43;;;;;;;;;;5056024;28;20526;-76
2021/12/13 06:31:16;;;;;;;23.90;17.58;;;;;;;;;;5056107;28;20251;-81
2021/12/13 06:33:53;;;;;;;26.27;20.48;;;;;;;;;;5055147;28;20435;-80
2021/12/13 06:36:26;;;;;;;23.58;16.67;;;;;;;;;;5054022;28;20643;-81
2021/12/13 06:38:54;;;;;;;18.42;14.48;;;;;;;;;;5055437;28;20172;-77
2021/12/13 06:41:20;;;;;;;17.38;13.75;;;;;;;;;;5055121;28;20731;-79
2021/12/13 06:44:04;;;;;;;14.57;12.27;;;;;;;;;;5055370;28;20226;-80
2021/12/13 06:46:32;;;;;;;13.73;11.57;;;;;;;;;;5055707;28;20386;-75
2021/12/13 06:49:01;;;;;;;18.65;14.63;;;;;;;;;;5055710;28;20259;-74
2021/12/13 06:51:45;;;;;;;20.58;14.05;;;;;;;;;;5055548;28;20519;-72
2021/12/13 06:54:13;;;;;;;16.05;11.95;;;;;;;;;;5055499;28;20204;-73
2021/12/13 06:56:40;;;;;;;14.70;12.13;;;;;;;;;;5055513;28;20194;-69
2021/12/13 06:59:07;;;;;;;13.63;10.95;;;;;;;;;;5055379;28;20283;-72
2021/12/13 07:01:34;;;;;;;13.60;12.20;;;;;;;;;;5055504;28;20238;-72
2021/12/13 07:04:03;;;;;;;15.10;12.38;;;;;;;;;;5054195;28;20572;-69
2021/12/13 07:06:29;;;;;;;14.90;11.85;;;;;;;;;;5055320;28;20178;-81
2021/12/13 07:09:16;;;;;;;13.82;12.43;;;;;;;;;;5055114;28;20845;-80
2021/12/13 07:11:44;;;;;;;14.43;12.00;;;;;;;;;;5055243;28;20632;-81
2021/12/13 07:14:14;;;;;;;14.65;11.63;;;;;;;;;;5055277;28;20541;-81
2021/12/13 07:16:41;;;;;;;13.00;11.40;;;;;;;;;;5055193;28;20195;-81
2021/12/13 07:19:18;;;;;;;15.75;13.77;;;;;;;;;;5055070;28;20204;-82
2021/12/13 07:21:51;;;;;;;13.55;11.80;;;;;;;;;;5055065;28;20230;-70
2021/12/13 07:24:19;;;;;;;13.23;11.82;;;;;;;;;;5055085;28;20607;-68
2021/12/13 07:26:55;;;;;;;12.70;11.30;;;;;;;;;;5054978;28;20176;-70
2021/12/13 07:29:50;;;;;;;12.88;11.57;;;;;;;;;;5055110;28;20239;-69
2021/12/13 07:32:16;;;;;;;40.08;26.08;;;;;;;;;;5050483;28;20199;-68
2021/12/13 07:34:54;;;;;;;44.53;29.77;;;;;;;;;;5054832;28;20215;-76
2021/12/13 07:37:34;;;;;;;41.42;27.02;;;;;;;;;;5055036;28;20390;-82
2021/12/13 07:40:22;;;;;;;34.25;25.58;;;;;;;;;;5054720;28;20231;-73
2021/12/13 07:42:51;;;;;;;34.35;24.80;;;;;;;;;;5054510;28;20659;-72
2021/12/13 07:45:29;;;;;;;22.00;18.25;;;;;;;;;;5054589;28;20171;-74
2021/12/13 07:47:56;;;;;;;22.77;17.73;;;;;;;;;;5054590;28;20230;-78
2021/12/13 07:50:23;;;;;;;17.08;15.27;;;;;;;;;;5054678;28;20252;-82
2021/12/13 07:52:54;;;;;;;16.67;14.38;;;;;;;;;;5054408;28;20215;-77
2021/12/13 07:55:22;;;;;;;15.10;12.10;;;;;;;;;;5054268;28;20208;-79
2021/12/13 07:57:49;;;;;;;13.35;11.93;;;;;;;;;;5054350;28;20514;-75
2021/12/13 08:00:21;;;;;;;14.15;12.68;;;;;;;;;;5054343;28;20612;-69
2021/12/13 08:02:59;;;;;;;14.07;12.60;;;;;;;;;;5054346;28;20175;-76
2021/12/13 08:05:28;;;;;;;18.10;13.30;;;;;;;;;;5054215;28;20165;-74
2021/12/13 08:07:58;;;;;;;27.83;17.75;;;;;;;;;;5054203;28;20290;-77
2021/12/13 08:10:25;;;;;;;22.67;17.55;;;;;;;;;;5053439;28;20227;-77
2021/12/13 08:12:52;;;;;;;22.60;17.70;;;;;;;;;;5054063;28;20168;-75
2021/12/13 08:15:33;;;;;;;21.95;16.02;;;;;;;;;;5054021;28;20690;-75
2021/12/13 08:18:01;;;;;;;22.58;17.15;;;;;;;;;;5052617;28;20172;-70
2021/12/13 08:20:30;;;;;;;21.00;16.02;;;;;;;;;;5053921;28;20168;-67
2021/12/13 08:22:57;;;;;;;27.33;17.02;;;;;;;;;;5053644;28;20639;-69
2021/12/13 08:25:26;;;;;;;16.90;14.23;;;;;;;;;;5054061;28;20183;-72
2021/12/13 08:28:00;;;;;;;19.70;14.02;;;;;;;;;;5053809;28;20247;-68
2021/12/13 08:30:31;;;;;;;17.25;13.88;;;;;;;;;;5053784;28;20180;-68
2021/12/13 08:33:04;;;;;;;17.40;14.32;;;;;;;;;;5053995;28;20192;-69
2021/12/13 08:35:49;;;;;;;18.02;12.50;;;;;;;;;;5053696;28;20549;-65
2021/12/13 08:38:25;;;;;;;18.65;15.30;;;;;;;;;;5053757;28;20192;-70
2021/12/13 08:40:51;;;;;;;15.63;14.05;;;;;;;;;;5053493;28;20579;-68
2021/12/13 08:43:32;;;;;;;17.43;14.53;;;;;;;;;;5053578;28;20638;-71
2021/12/13 08:45:58;;;;;;;16.87;14.37;;;;;;;;;;5053634;28;20399;-69
2021/12/13 08:48:24;;;;;;;20.53;18.20;;;;;;;;;;5053544;28;20407;-70
2021/12/13 08:50:53;;;;;;;16.97;14.30;;;;;;;;;;5053410;28;20766;-70
2021/12/13 08:53:24;;;;;;;18.03;16.00;;;;;;;;;;5053374;28;20441;-71
2021/12/13 08:56:09;;;;;;;12.33;11.20;;;;;;;;;;5053485;28;20419;-71
2021/12/13 08:58:36;;;;;;;12.90;11.60;;;;;;;;;;5053381;28;20771;-68
2021/12/13 09:01:05;;;;;;;14.13;12.83;;;;;;;;;;5053581;28;20414;-71
2021/12/13 09:03:36;;;;;;;13.20;11.90;;;;;;;;;;5053427;28;20406;-71
2021/12/13 09:06:06;;;;;;;13.50;12.10;;;;;;;;;;5053534;28;20482;-66
2021/12/13 09:08:44;;;;;;;13.07;11.77;;;;;;;;;;5053396;28;20845;-64
2021/12/13 09:11:27;;;;;;;12.40;11.17;;;;;;;;;;5053284;28;20407;-64
2021/12/13 09:13:59;;;;;;;11.80;10.73;;;;;;;;;;5052002;28;20455;-64
2021/12/13 09:16:29;;;;;;;12.57;11.47;;;;;;;;;;5053353;28;20494;-64
2021/12/13 09:19:07;;;;;;;12.10;11.00;;;;;;;;;;5051947;28;20789;-65
2021/12/13 09:21:43;;;;;;;12.30;11.20;;;;;;;;;;5054526;28;20419;-64
2021/12/13 09:24:09;;;;;;;14.83;12.57;;;;;;;;;;5057248;28;20407;-64
2021/12/13 09:26:41;;;;;;;12.57;11.47;;;;;;;;;;5057334;28;20415;-64
2021/12/13 09:29:07;;;;;;;15.40;11.10;;;;;;;;;;5057397;28;20764;-64
2021/12/13 09:31:35;;;;;;;14.50;10.70;;;;;;;;;;5057470;28;20422;-64
2021/12/13 09:34:21;;;;;;;12.27;11.20;;;;;;;;;;5055813;28;20489;-64
2021/12/13 09:36:50;;;;;;;13.03;11.40;;;;;;;;;;5056779;28;20531;-65
2021/12/13 09:39:24;;;;;;;13.03;11.83;;;;;;;;;;5056998;28;20405;-64
2021/12/13 09:41:57;;;;;;;12.77;11.73;;;;;;;;;;5056891;28;20417;-64
2021/12/13 09:44:33;;;;;;;11.60;10.70;;;;;;;;;;5056911;28;20405;-64
2021/12/13 09:47:01;;;;;;;12.87;11.77;;;;;;;;;;5057148;28;20484;-65
2021/12/13 09:49:33;;;;;;;13.13;12.03;;;;;;;;;;5056789;28;20449;-67
2021/12/13 09:52:06;;;;;;;13.00;11.80;;;;;;;;;;5056737;28;20788;-72
2021/12/13 09:54:38;;;;;;;14.07;12.67;;;;;;;;;;5056780;28;20461;-72
2021/12/13 09:57:07;;;;;;;13.43;12.17;;;;;;;;;;5056692;28;20472;-73
2021/12/13 09:59:38;;;;;;;13.00;11.80;;;;;;;;;;5055270;28;20476;-72
2021/12/13 10:02:06;;;;;;;12.70;11.70;;;;;;;;;;5056514;28;20411;-72
2021/12/13 10:04:35;;;;;;;12.77;11.67;;;;;;;;;;5056514;28;20854;-72
2021/12/13 10:07:03;;;;;;;12.87;11.57;;;;;;;;;;5056485;28;20420;-71
2021/12/13 10:09:34;;;;;;;12.37;11.17;;;;;;;;;;5056371;28;20979;-72
2021/12/13 10:12:14;;;;;;;12.30;11.20;;;;;;;;;;5056577;28;20509;-72
2021/12/13 10:14:42;;;;;;;13.10;11.70;;;;;;;;;;5056545;28;20479;-71
2021/12/13 10:17:10;;;;;;;12.53;11.53;;;;;;;;;;5056282;28;20412;-72
2021/12/13 10:19:38;;;;;;;10.90;10.10;;;;;;;;;;5054900;28;20431;-72
2021/12/13 10:22:06;;;;;;;11.23;10.43;;;;;;;;;;5056120;28;20445;-73
2021/12/13 10:24:38;;;;;;;10.93;10.23;;;;;;;;;;5056168;28;20455;-72
2021/12/13 10:27:07;;;;;;;11.80;10.80;;;;;;;;;;5056024;28;20417;-72
2021/12/13 10:29:34;;;;;;;10.53;9.50;;;;;;;;;;5056062;28;20417;-71
2021/12/13 10:32:04;;;;;;;9.53;8.90;;;;;;;;;;5055476;28;20439;-71
2021/12/13 10:34:32;;;;;;;9.50;8.90;;;;;;;;;;5055939;28;20467;-72
2021/12/13 10:37:08;;;;;;;10.83;10.00;;;;;;;;;;5056137;28;20513;-64
2021/12/13 10:39:39;;;;;;;10.80;9.90;;;;;;;;;;5055845;28;20890;-66
2021/12/13 10:42:08;;;;;;;9.87;9.13;;;;;;;;;;5055895;28;20425;-65
2021/12/13 10:44:35;;;;;;;9.67;8.73;;;;;;;;;;5055806;28;20429;-65
2021/12/13 10:47:04;;;;;;;9.00;8.30;;;;;;;;;;5055756;28;20815;-66
2021/12/13 10:49:32;;;;;;;9.40;8.60;;;;;;;;;;5055765;28;20405;-64
2021/12/13 10:52:00;;;;;;;9.87;9.17;;;;;;;;;;5055604;28;20518;-65
2021/12/13 10:54:30;;;;;;;10.87;9.97;;;;;;;;;;5055777;28;20478;-65
2021/12/13 10:56:58;;;;;;;11.03;10.07;;;;;;;;;;5055867;28;20425;-64
2021/12/13 10:59:26;;;;;;;8.87;8.23;;;;;;;;;;5055842;28;20395;-64
2021/12/13 11:01:54;;;;;;;7.87;7.40;;;;;;;;;;5055461;28;20900;-65
2021/12/13 11:04:22;;;;;;;7.90;7.30;;;;;;;;;;5055363;28;20760;-65
2021/12/13 11:06:48;;;;;;;8.23;7.43;;;;;;;;;;5055295;28;20479;-64
2021/12/13 11:09:19;;;;;;;9.87;9.10;;;;;;;;;;5055202;28;20516;-66
2021/12/13 11:11:51;;;;;;;9.57;8.77;;;;;;;;;;5055307;28;20419;-65
2021/12/13 11:14:20;;;;;;;9.93;9.00;;;;;;;;;;5055417;28;20495;-64
2021/12/13 11:16:48;;;;;;;10.10;9.20;;;;;;;;;;5055201;28;20452;-64
2021/12/13 11:19:17;;;;;;;10.03;9.23;;;;;;;;;;5055222;28;20398;-64
2021/12/13 11:21:44;;;;;;;9.53;8.57;;;;;;;;;;5055103;28;20425;-64
2021/12/13 11:24:20;;;;;;;10.87;9.73;;;;;;;;;;5055243;28;20402;-65
2021/12/13 11:26:47;;;;;;;11.90;10.90;;;;;;;;;;5055020;28;20914;-64
2021/12/13 11:29:15;;;;;;;11.80;10.50;;;;;;;;;;5055067;28;20434;-66
2021/12/13 11:32:00;;;;;;;12.87;11.20;;;;;;;;;;5055202;28;20407;-65
2021/12/13 11:34:38;;;;;;;10.40;9.43;;;;;;;;;;5054806;28;20985;-64
2021/12/13 11:37:20;;;;;;;9.97;8.50;;;;;;;;;;5054702;28;20524;-65
2021/12/13 11:39:48;;;;;;;7.70;7.17;;;;;;;;;;5054739;28;20491;-64
2021/12/13 11:42:14;;;;;;;7.97;7.27;;;;;;;;;;5054766;28;20413;-64
2021/12/13 11:45:06;;;;;;;7.00;6.50;;;;;;;;;;5053796;28;20461;-64
2021/12/13 11:47:41;;;;;;;10.10;7.30;;;;;;;;;;5054560;28;20420;-64
2021/12/13 11:50:31;;;;;;;6.90;6.50;;;;;;;;;;5054635;28;20407;-66
2021/12/13 11:53:18;;;;;;;8.03;7.30;;;;;;;;;;5054522;28;20492;-65
2021/12/13 11:55:53;;;;;;;7.67;7.07;;;;;;;;;;5054543;28;20468;-65
2021/12/13 11:58:37;;;;;;;7.63;7.03;;;;;;;;;;5054442;28;20501;-72
2021/12/13 12:01:22;;;;;;;6.97;6.40;;;;;;;;;;5054672;28;20811;-73
2021/12/13 12:04:20;;;;;;;7.40;6.90;;;;;;;;;;5054305;28;20804;-65
2021/12/13 12:07:05;;;;;;;5.97;5.57;;;;;;;;;;5052912;28;20510;-67
2021/12/13 12:09:42;;;;;;;4.27;4.07;;;;;;;;;;5054171;28;20468;-66
2021/12/13 12:12:26;;;;;;;6.40;4.43;;;;;;;;;;5054219;28;20403;-66
2021/12/13 12:15:00;;;;;;;3.93;3.73;;;;;;;;;;5052740;28;20850;-65
2021/12/13 12:17:27;;;;;;;4.23;3.80;;;;;;;;;;5054111;28;20406;-66
2021/12/13 12:19:54;;;;;;;4.17;3.97;;;;;;;;;;5054113;28;20416;-65
2021/12/13 12:22:21;;;;;;;5.20;4.80;;;;;;;;;;5053943;28;20460;-67
2021/12/13 12:24:52;;;;;;;5.43;4.93;;;;;;;;;;5053972;28;20426;-68
2021/12/13 12:27:19;;;;;;;5.03;4.67;;;;;;;;;;5052525;28;20440;-66
2021/12/13 12:29:53;;;;;;;5.10;4.80;;;;;;;;;;5053830;28;20993;-67
2021/12/13 12:32:20;;;;;;;6.10;5.17;;;;;;;;;;5053788;28;20409;-68
2021/12/13 12:34:58;;;;;;;5.30;5.10;;;;;;;;;;5052453;28;20480;-65
2021/12/13 12:37:34;;;;;;;5.20;5.00;;;;;;;;;;5053703;28;20503;-66
2021/12/13 12:39:59;;;;;;;5.07;4.73;;;;;;;;;;5053540;28;20409;-65
2021/12/13 12:42:25;;;;;;;4.60;4.20;;;;;;;;;;5053843;28;20419;-68
2021/12/13 12:44:54;;;;;;;4.43;4.13;;;;;;;;;;5053544;28;20408;-71
2021/12/13 12:47:35;;;;;;;4.27;4.07;;;;;;;;;;5053874;28;20406;-71
2021/12/13 12:50:16;;;;;;;4.57;4.30;;;;;;;;;;5053482;28;20402;-66
2021/12/13 12:52:49;;;;;;;4.93;4.63;;;;;;;;;;5053749;28;20415;-69
2021/12/13 12:55:17;;;;;;;4.93;4.60;;;;;;;;;;5053237;28;20556;-70
2021/12/13 12:57:43;;;;;;;5.93;5.53;;;;;;;;;;5053498;28;20802;-70
2021/12/13 13:00:10;;;;;;;4.20;4.00;;;;;;;;;;5053417;28;20417;-68
2021/12/13 13:02:36;;;;;;;4.70;4.50;;;;;;;;;;5053372;28;20398;-69
2021/12/13 13:05:04;;;;;;;4.00;3.80;;;;;;;;;;5053637;28;20412;-70
2021/12/13 13:07:33;;;;;;;2.93;2.83;;;;;;;;;;5053364;28;20519;-69
2021/12/13 13:10:27;;;;;;;3.23;2.53;;;;;;;;;;5053180;28;20465;-68
2021/12/13 13:12:54;;;;;;;8.13;7.27;;;;;;;;;;5053045;28;20424;-70
2021/12/13 13:15:21;;;;;;;17.27;13.67;;;;;;;;;;5053108;28;20477;-71
2021/12/13 13:17:57;;;;;;;3.57;3.47;;;;;;;;;;5053274;28;20409;-69
2021/12/13 13:20:29;;;;;;;3.13;2.93;;;;;;;;;;5053340;28;20399;-70
2021/12/13 13:22:57;;;;;;;2.70;2.60;;;;;;;;;;5053208;28;20418;-71
2021/12/13 13:25:26;;;;;;;2.20;2.10;;;;;;;;;;5053185;28;20458;-71
2021/12/13 13:27:52;;;;;;;3.10;2.90;;;;;;;;;;5053086;28;20880;-72
2021/12/13 13:30:21;;;;;;;4.20;4.03;;;;;;;;;;5052980;28;20391;-71
2021/12/13 13:32:47;;;;;;;4.13;3.93;;;;;;;;;;5053082;28;20497;-71
2021/12/13 13:35:13;;;;;;;4.47;4.07;;;;;;;;;;5053019;28;20584;-72
2021/12/13 13:37:41;;;;;;;7.50;3.83;;;;;;;;;;5053057;28;20425;-72
2021/12/13 13:40:10;;;;;;;3.73;3.53;;;;;;;;;;5053233;28;20402;-72
2021/12/13 13:42:45;;;;;;;3.80;3.60;;;;;;;;;;5053070;28;20399;-71
2021/12/13 13:45:22;;;;;;;3.60;3.30;;;;;;;;;;5052975;28;20882;-72
2021/12/13 13:47:49;;;;;;;4.37;4.10;;;;;;;;;;5053001;28;20449;-70
2021/12/13 13:50:32;;;;;;;3.90;3.70;;;;;;;;;;5052950;28;20441;-72
2021/12/13 13:53:05;;;;;;;5.50;4.67;;;;;;;;;;5052839;28;20427;-69
2021/12/13 13:55:40;;;;;;;5.60;4.10;;;;;;;;;;5051522;28;20995;-71
2021/12/13 13:58:08;;;;;;;3.40;3.20;;;;;;;;;;5052913;28;20410;-71
2021/12/13 14:00:39;;;;;;;4.23;4.03;;;;;;;;;;5052852;28;20407;-72
2021/12/13 14:03:06;;;;;;;3.80;3.67;;;;;;;;;;5052905;28;20411;-71
2021/12/13 14:05:36;;;;;;;4.00;3.80;;;;;;;;;;5052755;28;20498;-72
2021/12/13 14:08:03;;;;;;;3.80;3.60;;;;;;;;;;5054623;28;20464;-71
2021/12/13 14:10:32;;;;;;;3.63;3.40;;;;;;;;;;5055245;28;20406;-73
2021/12/13 14:13:06;;;;;;;4.00;3.60;;;;;;;;;;5056487;28;20947;-72
2021/12/13 14:15:33;;;;;;;7.13;3.70;;;;;;;;;;5056602;28;20881;-71
2021/12/13 14:18:07;;;;;;;4.10;3.70;;;;;;;;;;5056271;28;20934;-70
2021/12/13 14:20:43;;;;;;;3.67;3.57;;;;;;;;;;5056348;28;20411;-72
2021/12/13 14:23:12;;;;;;;4.37;3.97;;;;;;;;;;5054837;28;20422;-73
2021/12/13 14:25:40;;;;;;;4.20;3.90;;;;;;;;;;5056271;28;20418;-72
2021/12/13 14:28:07;;;;;;;4.83;4.60;;;;;;;;;;5056126;28;20955;-71
2021/12/13 14:30:38;;;;;;;4.20;3.90;;;;;;;;;;5056071;28;20411;-73
2021/12/13 14:33:19;;;;;;;8.23;4.20;;;;;;;;;;5056117;28;20946;-72
2021/12/13 14:35:45;;;;;;;7.10;4.47;;;;;;;;;;5056087;28;20422;-71
2021/12/13 14:38:12;;;;;;;5.63;5.20;;;;;;;;;;5056009;28;20415;-66
2021/12/13 14:40:50;;;;;;;6.00;5.50;;;;;;;;;;5054645;28;20778;-66
2021/12/13 14:43:21;;;;;;;14.70;6.57;;;;;;;;;;5055384;28;20410;-66
2021/12/13 14:45:47;;;;;;;6.30;5.80;;;;;;;;;;5055585;28;20852;-69
2021/12/13 14:48:16;;;;;;;5.10;4.73;;;;;;;;;;5055822;28;20822;-71
2021/12/13 14:50:47;;;;;;;4.70;4.40;;;;;;;;;;5055677;28;20407;-68
2021/12/13 14:53:19;;;;;;;6.07;5.63;;;;;;;;;;5055658;28;20423;-68
2021/12/13 14:55:48;;;;;;;6.23;5.63;;;;;;;;;;5055661;28;20824;-68
2021/12/13 14:58:16;;;;;;;6.30;5.70;;;;;;;;;;5055620;28;20410;-70
2021/12/13 15:00:48;;;;;;;7.03;6.47;;;;;;;;;;5055564;28;20428;-72